TimeCDT,TemperatureF,Dew PointF,Humidity,Sea Level PressureIn,VisibilityMPH,Wind Direction,Wind SpeedMPH,Gust SpeedMPH,PrecipitationIn,Events,Conditions,WindDirDegrees,DateUTC
12:27 AM,69.8,66.2,88,30.02,10.0,NNE,13.8,20.7,N/A,,Overcast,20,2013-09-08 05:27:00
12:52 AM,69.1,66.0,90,30.01,10.0,NNE,16.1,24.2,N/A,,Overcast,30,2013-09-08 05:52:00
1:52 AM,69.1,64.9,87,30.01,10.0,NNE,13.8,21.9,N/A,,Overcast,30,2013-09-08 06:52:00
2:52 AM,68.0,63.0,84,30.01,10.0,NNE,16.1,20.7,N/A,,Overcast,30,2013-09-08 07:52:00
3:52 AM,68.0,64.0,87,30.02,10.0,NNE,17.3,23.0,N/A,,Overcast,20,2013-09-08 08:52:00
4:52 AM,68.0,64.0,87,30.01,10.0,NNE,10.4,-,N/A,,Overcast,20,2013-09-08 09:52:00
5:52 AM,68.0,64.0,87,30.02,10.0,NNE,12.7,20.7,N/A,,Overcast,30,2013-09-08 10:52:00
6:52 AM,68.0,64.0,87,30.05,10.0,NE,10.4,-,N/A,,Overcast,40,2013-09-08 11:52:00
7:52 AM,68.0,64.9,90,30.05,10.0,ENE,10.4,-,N/A,,Overcast,60,2013-09-08 12:52:00
8:52 AM,69.1,64.9,87,30.04,10.0,ENE,12.7,-,N/A,,Overcast,60,2013-09-08 13:52:00
9:52 AM,70.0,64.9,84,30.05,10.0,East,13.8,-,N/A,,Overcast,80,2013-09-08 14:52:00
10:35 AM,69.8,64.4,83,30.07,10.0,East,15.0,-,N/A,,Overcast,80,2013-09-08 15:35:00
10:50 AM,69.8,64.4,83,30.07,10.0,East,12.7,-,N/A,,Overcast,90,2013-09-08 15:50:00
10:52 AM,70.0,64.9,84,30.06,10.0,East,13.8,-,N/A,,Overcast,90,2013-09-08 15:52:00
11:52 AM,70.0,64.9,84,30.07,9.0,East,13.8,-,N/A,,Overcast,90,2013-09-08 16:52:00
12:23 PM,69.8,64.4,83,30.08,10.0,East,12.7,-,N/A,,Overcast,90,2013-09-08 17:23:00
12:52 PM,69.1,64.9,87,30.07,10.0,East,11.5,-,N/A,,Overcast,90,2013-09-08 17:52:00
1:52 PM,69.1,64.0,84,30.06,10.0,East,11.5,-,N/A,,Overcast,100,2013-09-08 18:52:00
2:52 PM,71.1,64.0,78,30.05,10.0,East,12.7,-,N/A,,Mostly Cloudy,100,2013-09-08 19:52:00
3:52 PM,72.0,64.0,76,30.04,10.0,East,12.7,-,N/A,,Mostly Cloudy,100,2013-09-08 20:52:00
4:52 PM,71.1,63.0,75,30.02,10.0,East,11.5,-,N/A,,Scattered Clouds,100,2013-09-08 21:52:00
5:52 PM,71.1,63.0,75,30.00,10.0,East,9.2,-,N/A,,Scattered Clouds,100,2013-09-08 22:52:00
6:52 PM,69.1,63.0,81,29.99,10.0,East,9.2,-,N/A,,Scattered Clouds,90,2013-09-08 23:52:00
7:52 PM,66.9,63.0,87,29.98,10.0,East,6.9,-,N/A,,Scattered Clouds,90,2013-09-09 00:52:00
8:52 PM,68.0,64.0,87,29.96,10.0,SE,8.1,-,N/A,,Mostly Cloudy,130,2013-09-09 01:52:00
9:52 PM,69.1,64.0,84,29.99,10.0,ENE,6.9,-,0.00,,Overcast,60,2013-09-09 02:52:00
10:52 PM,69.1,64.0,84,30.00,10.0,ENE,8.1,-,0.00,,Overcast,60,2013-09-09 03:52:00
11:52 PM,70.0,64.0,81,29.99,10.0,ENE,3.5,-,N/A,,Overcast,70,2013-09-09 04:52:00